sensor_id;sensor_type;location;lat;lon;timestamp;temperature;humidity
21787;DHT22;11055;50.870;4.316;2023-05-13T00:01:14;17.50;99.90
21787;DHT22;11055;50.870;4.316;2023-05-13T00:03:40;17.40;99.90
21787;DHT22;11055;50.870;4.316;2023-05-13T00:06:06;17.30;99.90
21787;DHT22;11055;50.870;4.316;2023-05-13T00:08:31;17.30;99.90
21787;DHT22;11055;50.870;4.316;2023-05-13T00:10:57;17.30;99.90
21787;DHT22;11055;50.870;4.316;2023-05-13T00:13:23;17.20;99.90
21787;DHT22;11055;50.870;4.316;2023-05-13T00:15:48;17.10;99.90
21787;DHT22;11055;50.870;4.316;2023-05-13T00:18:14;17.00;99.90
21787;DHT22;11055;50.870;4.316;2023-05-13T00:20:40;16.70;99.90
21787;DHT22;11055;50.870;4.316;2023-05-13T00:23:05;16.60;99.90
21787;DHT22;11055;50.870;4.316;2023-05-13T00:25:32;16.40;99.90
21787;DHT22;11055;50.870;4.316;2023-05-13T00:27:58;16.30;99.90
21787;DHT22;11055;50.870;4.316;2023-05-13T00:30:23;16.40;99.90
21787;DHT22;11055;50.870;4.316;2023-05-13T00:32:49;16.60;99.90
21787;DHT22;11055;50.870;4.316;2023-05-13T00:35:15;16.70;99.90
21787;DHT22;11055;50.870;4.316;2023-05-13T00:37:40;16.70;99.90
21787;DHT22;11055;50.870;4.316;2023-05-13T00:40:23;16.70;99.90
21787;DHT22;11055;50.870;4.316;2023-05-13T00:42:49;16.80;99.90
21787;DHT22;11055;50.870;4.316;2023-05-13T00:45:15;16.80;99.90
21787;DHT22;11055;50.870;4.316;2023-05-13T00:47:42;16.90;99.90
21787;DHT22;11055;50.870;4.316;2023-05-13T00:50:09;16.80;99.90
21787;DHT22;11055;50.870;4.316;2023-05-13T00:52:37;16.80;99.90
21787;DHT22;11055;50.870;4.316;2023-05-13T00:55:03;16.70;99.90
21787;DHT22;11055;50.870;4.316;2023-05-13T00:57:30;16.70;99.90
21787;DHT22;11055;50.870;4.316;2023-05-13T00:59:55;16.80;99.90
21787;DHT22;11055;50.870;4.316;2023-05-13T01:02:30;16.90;99.90
21787;DHT22;11055;50.870;4.316;2023-05-13T01:10:54;17.00;99.90
21787;DHT22;11055;50.870;4.316;2023-05-13T01:13:30;16.90;99.90
21787;DHT22;11055;50.870;4.316;2023-05-13T01:18:35;16.90;99.90
21787;DHT22;11055;50.870;4.316;2023-05-13T01:21:02;17.00;99.90
21787;DHT22;11055;50.870;4.316;2023-05-13T01:23:29;17.10;99.90
21787;DHT22;11055;50.870;4.316;2023-05-13T01:25:55;17.10;99.90
21787;DHT22;11055;50.870;4.316;2023-05-13T01:28:21;17.10;99.90
21787;DHT22;11055;50.870;4.316;2023-05-13T01:30:47;16.90;99.90
21787;DHT22;11055;50.870;4.316;2023-05-13T01:33:14;16.80;99.90
21787;DHT22;11055;50.870;4.316;2023-05-13T01:35:41;16.90;99.90
21787;DHT22;11055;50.870;4.316;2023-05-13T01:38:07;16.90;99.90
21787;DHT22;11055;50.870;4.316;2023-05-13T01:40:34;16.90;99.90
21787;DHT22;11055;50.870;4.316;2023-05-13T01:43:00;16.80;99.90
21787;DHT22;11055;50.870;4.316;2023-05-13T01:45:29;16.80;99.90
21787;DHT22;11055;50.870;4.316;2023-05-13T01:47:55;16.90;99.90
21787;DHT22;11055;50.870;4.316;2023-05-13T01:50:20;16.90;99.90
21787;DHT22;11055;50.870;4.316;2023-05-13T01:52:46;17.00;99.90
21787;DHT22;11055;50.870;4.316;2023-05-13T01:55:14;16.90;99.90
21787;DHT22;11055;50.870;4.316;2023-05-13T01:57:39;17.00;99.90
21787;DHT22;11055;50.870;4.316;2023-05-13T02:00:05;17.00;99.90
21787;DHT22;11055;50.870;4.316;2023-05-13T02:02:32;17.00;99.90
21787;DHT22;11055;50.870;4.316;2023-05-13T02:04:58;16.90;99.90
21787;DHT22;11055;50.870;4.316;2023-05-13T02:07:23;16.90;99.90
21787;DHT22;11055;50.870;4.316;2023-05-13T02:09:49;16.90;99.90
21787;DHT22;11055;50.870;4.316;2023-05-13T02:12:15;16.90;99.90
21787;DHT22;11055;50.870;4.316;2023-05-13T02:14:40;16.90;99.90
21787;DHT22;11055;50.870;4.316;2023-05-13T02:17:06;17.00;99.90
21787;DHT22;11055;50.870;4.316;2023-05-13T02:19:32;17.00;99.90
21787;DHT22;11055;50.870;4.316;2023-05-13T02:22:00;17.00;99.90
21787;DHT22;11055;50.870;4.316;2023-05-13T02:24:26;16.90;99.90
21787;DHT22;11055;50.870;4.316;2023-05-13T02:26:51;16.90;99.90
21787;DHT22;11055;50.870;4.316;2023-05-13T02:29:18;16.90;99.90
21787;DHT22;11055;50.870;4.316;2023-05-13T02:31:43;17.00;99.90
21787;DHT22;11055;50.870;4.316;2023-05-13T02:34:09;17.00;99.90
21787;DHT22;11055;50.870;4.316;2023-05-13T02:36:34;17.00;99.90
21787;DHT22;11055;50.870;4.316;2023-05-13T02:39:00;17.00;99.90
21787;DHT22;11055;50.870;4.316;2023-05-13T02:41:26;16.90;99.90
21787;DHT22;11055;50.870;4.316;2023-05-13T02:43:52;17.00;99.90
21787;DHT22;11055;50.870;4.316;2023-05-13T02:46:17;16.90;99.90
21787;DHT22;11055;50.870;4.316;2023-05-13T02:48:43;17.00;99.90
21787;DHT22;11055;50.870;4.316;2023-05-13T02:51:09;17.00;99.90
21787;DHT22;11055;50.870;4.316;2023-05-13T02:53:34;17.00;99.90
21787;DHT22;11055;50.870;4.316;2023-05-13T02:56:00;17.00;99.90
21787;DHT22;11055;50.870;4.316;2023-05-13T02:58:25;17.00;99.90
21787;DHT22;11055;50.870;4.316;2023-05-13T03:00:51;16.90;99.90
21787;DHT22;11055;50.870;4.316;2023-05-13T03:03:17;16.90;99.90
21787;DHT22;11055;50.870;4.316;2023-05-13T03:05:42;17.00;99.90
21787;DHT22;11055;50.870;4.316;2023-05-13T03:08:08;17.00;99.90
21787;DHT22;11055;50.870;4.316;2023-05-13T03:10:34;16.90;99.90
21787;DHT22;11055;50.870;4.316;2023-05-13T03:12:59;16.90;99.90
21787;DHT22;11055;50.870;4.316;2023-05-13T03:15:25;16.90;99.90
21787;DHT22;11055;50.870;4.316;2023-05-13T03:17:51;16.90;99.90
21787;DHT22;11055;50.870;4.316;2023-05-13T03:20:17;16.90;99.90
21787;DHT22;11055;50.870;4.316;2023-05-13T03:22:43;16.90;99.90
21787;DHT22;11055;50.870;4.316;2023-05-13T03:25:09;16.90;99.90
21787;DHT22;11055;50.870;4.316;2023-05-13T03:27:34;16.90;99.90
21787;DHT22;11055;50.870;4.316;2023-05-13T03:30:00;16.80;99.90
21787;DHT22;11055;50.870;4.316;2023-05-13T03:32:26;16.70;99.90
21787;DHT22;11055;50.870;4.316;2023-05-13T03:34:55;16.80;99.90
21787;DHT22;11055;50.870;4.316;2023-05-13T03:37:22;16.70;99.90
21787;DHT22;11055;50.870;4.316;2023-05-13T03:39:48;16.80;99.90
21787;DHT22;11055;50.870;4.316;2023-05-13T03:42:13;16.80;99.90
21787;DHT22;11055;50.870;4.316;2023-05-13T03:44:39;16.80;99.90
21787;DHT22;11055;50.870;4.316;2023-05-13T03:47:05;16.80;99.90
21787;DHT22;11055;50.870;4.316;2023-05-13T03:49:30;16.60;99.90
21787;DHT22;11055;50.870;4.316;2023-05-13T03:51:56;16.40;99.90
21787;DHT22;11055;50.870;4.316;2023-05-13T03:54:22;16.40;99.90
21787;DHT22;11055;50.870;4.316;2023-05-13T03:56:47;16.40;99.90
21787;DHT22;11055;50.870;4.316;2023-05-13T03:59:15;16.40;99.90
21787;DHT22;11055;50.870;4.316;2023-05-13T04:01:41;16.50;99.90
21787;DHT22;11055;50.870;4.316;2023-05-13T04:04:07;16.50;99.90
21787;DHT22;11055;50.870;4.316;2023-05-13T04:06:32;16.50;99.90
21787;DHT22;11055;50.870;4.316;2023-05-13T04:08:58;16.50;99.90
21787;DHT22;11055;50.870;4.316;2023-05-13T04:11:24;16.50;99.90
21787;DHT22;11055;50.870;4.316;2023-05-13T04:13:50;16.50;99.90
21787;DHT22;11055;50.870;4.316;2023-05-13T04:16:16;16.60;99.90
21787;DHT22;11055;50.870;4.316;2023-05-13T04:18:41;16.60;99.90
21787;DHT22;11055;50.870;4.316;2023-05-13T04:21:08;16.60;99.90
21787;DHT22;11055;50.870;4.316;2023-05-13T04:23:34;16.60;99.90
21787;DHT22;11055;50.870;4.316;2023-05-13T04:26:00;16.50;99.90
21787;DHT22;11055;50.870;4.316;2023-05-13T04:28:25;16.50;99.90
21787;DHT22;11055;50.870;4.316;2023-05-13T04:30:51;16.40;99.90
21787;DHT22;11055;50.870;4.316;2023-05-13T04:33:17;16.30;99.90
21787;DHT22;11055;50.870;4.316;2023-05-13T04:35:42;16.40;99.90
21787;DHT22;11055;50.870;4.316;2023-05-13T04:38:08;16.40;99.90
21787;DHT22;11055;50.870;4.316;2023-05-13T04:40:34;16.60;99.90
21787;DHT22;11055;50.870;4.316;2023-05-13T04:42:59;16.50;99.90
21787;DHT22;11055;50.870;4.316;2023-05-13T04:45:25;16.50;99.90
21787;DHT22;11055;50.870;4.316;2023-05-13T04:47:51;16.50;99.90
21787;DHT22;11055;50.870;4.316;2023-05-13T04:50:17;16.50;99.90
21787;DHT22;11055;50.870;4.316;2023-05-13T04:52:42;16.50;99.90
21787;DHT22;11055;50.870;4.316;2023-05-13T04:55:09;16.40;99.90
21787;DHT22;11055;50.870;4.316;2023-05-13T04:57:34;16.40;99.90
21787;DHT22;11055;50.870;4.316;2023-05-13T05:00:01;16.30;99.90
21787;DHT22;11055;50.870;4.316;2023-05-13T05:02:27;16.20;99.90
21787;DHT22;11055;50.870;4.316;2023-05-13T05:04:55;16.20;99.90
21787;DHT22;11055;50.870;4.316;2023-05-13T05:07:20;16.10;99.90
21787;DHT22;11055;50.870;4.316;2023-05-13T05:09:46;16.10;99.90
21787;DHT22;11055;50.870;4.316;2023-05-13T05:12:12;16.10;99.90
21787;DHT22;11055;50.870;4.316;2023-05-13T05:14:38;15.90;99.90
21787;DHT22;11055;50.870;4.316;2023-05-13T05:17:03;15.60;99.90
21787;DHT22;11055;50.870;4.316;2023-05-13T05:19:29;15.60;99.90
21787;DHT22;11055;50.870;4.316;2023-05-13T05:21:55;15.50;99.90
21787;DHT22;11055;50.870;4.316;2023-05-13T05:24:20;15.60;99.90
21787;DHT22;11055;50.870;4.316;2023-05-13T05:26:46;15.70;99.90
21787;DHT22;11055;50.870;4.316;2023-05-13T05:29:12;15.70;99.90
21787;DHT22;11055;50.870;4.316;2023-05-13T05:31:37;15.80;99.90
21787;DHT22;11055;50.870;4.316;2023-05-13T05:34:03;15.90;99.90
21787;DHT22;11055;50.870;4.316;2023-05-13T05:36:29;15.90;99.90
21787;DHT22;11055;50.870;4.316;2023-05-13T05:38:54;15.80;99.90
21787;DHT22;11055;50.870;4.316;2023-05-13T05:41:20;15.80;99.90
21787;DHT22;11055;50.870;4.316;2023-05-13T05:43:46;15.80;99.90
21787;DHT22;11055;50.870;4.316;2023-05-13T05:46:12;15.80;99.90
21787;DHT22;11055;50.870;4.316;2023-05-13T05:48:38;15.80;99.90
21787;DHT22;11055;50.870;4.316;2023-05-13T05:51:04;15.70;99.90
21787;DHT22;11055;50.870;4.316;2023-05-13T05:53:30;15.70;99.90
21787;DHT22;11055;50.870;4.316;2023-05-13T05:55:56;15.80;99.90
21787;DHT22;11055;50.870;4.316;2023-05-13T05:58:22;15.80;99.90
21787;DHT22;11055;50.870;4.316;2023-05-13T06:00:48;15.80;99.90
21787;DHT22;11055;50.870;4.316;2023-05-13T06:03:13;15.80;99.90
21787;DHT22;11055;50.870;4.316;2023-05-13T06:05:39;15.90;99.90
21787;DHT22;11055;50.870;4.316;2023-05-13T06:08:05;15.90;99.90
21787;DHT22;11055;50.870;4.316;2023-05-13T06:10:30;15.90;99.90
21787;DHT22;11055;50.870;4.316;2023-05-13T06:12:56;15.80;99.90
21787;DHT22;11055;50.870;4.316;2023-05-13T06:15:22;15.80;99.90
21787;DHT22;11055;50.870;4.316;2023-05-13T06:17:47;15.80;99.90
21787;DHT22;11055;50.870;4.316;2023-05-13T06:20:13;15.90;99.90
21787;DHT22;11055;50.870;4.316;2023-05-13T06:22:39;15.90;99.90
21787;DHT22;11055;50.870;4.316;2023-05-13T06:25:06;16.00;99.90
21787;DHT22;11055;50.870;4.316;2023-05-13T06:27:31;16.00;99.90
21787;DHT22;11055;50.870;4.316;2023-05-13T06:29:59;16.00;99.90
21787;DHT22;11055;50.870;4.316;2023-05-13T06:32:24;16.10;99.90
21787;DHT22;11055;50.870;4.316;2023-05-13T06:34:50;15.90;99.90
21787;DHT22;11055;50.870;4.316;2023-05-13T06:37:17;15.80;99.90
21787;DHT22;11055;50.870;4.316;2023-05-13T06:39:42;15.70;99.90
21787;DHT22;11055;50.870;4.316;2023-05-13T06:42:08;15.80;99.90
21787;DHT22;11055;50.870;4.316;2023-05-13T06:44:34;15.80;99.90
21787;DHT22;11055;50.870;4.316;2023-05-13T06:47:00;15.90;99.90
21787;DHT22;11055;50.870;4.316;2023-05-13T06:49:27;16.10;99.90
21787;DHT22;11055;50.870;4.316;2023-05-13T06:51:52;16.40;99.90
21787;DHT22;11055;50.870;4.316;2023-05-13T06:54:18;16.50;99.90
21787;DHT22;11055;50.870;4.316;2023-05-13T06:56:44;16.50;99.90
21787;DHT22;11055;50.870;4.316;2023-05-13T06:59:09;16.50;99.90
21787;DHT22;11055;50.870;4.316;2023-05-13T07:01:36;16.50;99.90
21787;DHT22;11055;50.870;4.316;2023-05-13T07:04:02;16.50;99.90
21787;DHT22;11055;50.870;4.316;2023-05-13T07:06:27;16.60;99.90
21787;DHT22;11055;50.870;4.316;2023-05-13T07:08:55;16.70;99.90
21787;DHT22;11055;50.870;4.316;2023-05-13T07:11:20;16.90;99.90
21787;DHT22;11055;50.870;4.316;2023-05-13T07:13:47;17.10;99.90
21787;DHT22;11055;50.870;4.316;2023-05-13T07:16:13;17.20;99.90
21787;DHT22;11055;50.870;4.316;2023-05-13T07:18:39;17.40;99.90
21787;DHT22;11055;50.870;4.316;2023-05-13T07:21:04;17.50;99.90
21787;DHT22;11055;50.870;4.316;2023-05-13T07:23:31;17.70;99.90
21787;DHT22;11055;50.870;4.316;2023-05-13T07:25:56;17.60;99.90
21787;DHT22;11055;50.870;4.316;2023-05-13T07:28:22;17.60;99.90
21787;DHT22;11055;50.870;4.316;2023-05-13T07:30:48;17.50;99.90
21787;DHT22;11055;50.870;4.316;2023-05-13T07:33:13;17.60;99.90
21787;DHT22;11055;50.870;4.316;2023-05-13T07:35:39;17.70;99.90
21787;DHT22;11055;50.870;4.316;2023-05-13T07:38:06;17.80;99.90
21787;DHT22;11055;50.870;4.316;2023-05-13T07:40:33;18.10;99.90
21787;DHT22;11055;50.870;4.316;2023-05-13T07:42:58;18.30;99.90
21787;DHT22;11055;50.870;4.316;2023-05-13T07:45:25;18.40;99.90
21787;DHT22;11055;50.870;4.316;2023-05-13T07:47:51;18.40;99.90
21787;DHT22;11055;50.870;4.316;2023-05-13T07:50:16;18.40;99.90
21787;DHT22;11055;50.870;4.316;2023-05-13T07:52:42;18.40;99.90
21787;DHT22;11055;50.870;4.316;2023-05-13T07:55:08;18.40;99.90
21787;DHT22;11055;50.870;4.316;2023-05-13T07:57:35;18.40;99.90
21787;DHT22;11055;50.870;4.316;2023-05-13T08:00:01;18.60;99.90
21787;DHT22;11055;50.870;4.316;2023-05-13T08:02:27;18.70;99.90
21787;DHT22;11055;50.870;4.316;2023-05-13T08:04:52;18.70;99.90
21787;DHT22;11055;50.870;4.316;2023-05-13T08:07:18;18.60;99.90
21787;DHT22;11055;50.870;4.316;2023-05-13T08:09:44;18.70;99.90
21787;DHT22;11055;50.870;4.316;2023-05-13T08:12:09;18.90;99.90
21787;DHT22;11055;50.870;4.316;2023-05-13T08:14:35;19.00;99.90
21787;DHT22;11055;50.870;4.316;2023-05-13T08:17:03;19.10;99.90
21787;DHT22;11055;50.870;4.316;2023-05-13T08:19:29;19.30;99.90
21787;DHT22;11055;50.870;4.316;2023-05-13T08:21:55;19.50;99.90
21787;DHT22;11055;50.870;4.316;2023-05-13T08:24:20;19.50;99.90
21787;DHT22;11055;50.870;4.316;2023-05-13T08:26:46;19.60;99.90
21787;DHT22;11055;50.870;4.316;2023-05-13T08:29:12;19.60;99.90
21787;DHT22;11055;50.870;4.316;2023-05-13T08:31:40;19.60;99.90
21787;DHT22;11055;50.870;4.316;2023-05-13T08:34:06;19.50;99.90
21787;DHT22;11055;50.870;4.316;2023-05-13T08:36:32;19.30;99.90
21787;DHT22;11055;50.870;4.316;2023-05-13T08:38:58;19.40;99.90
21787;DHT22;11055;50.870;4.316;2023-05-13T08:41:24;19.50;99.90
21787;DHT22;11055;50.870;4.316;2023-05-13T08:43:51;19.40;99.90
21787;DHT22;11055;50.870;4.316;2023-05-13T08:46:17;19.20;99.90
21787;DHT22;11055;50.870;4.316;2023-05-13T08:48:43;19.10;99.90
21787;DHT22;11055;50.870;4.316;2023-05-13T08:51:10;19.00;99.90
21787;DHT22;11055;50.870;4.316;2023-05-13T08:53:38;19.00;99.90
21787;DHT22;11055;50.870;4.316;2023-05-13T08:56:07;19.00;99.90
21787;DHT22;11055;50.870;4.316;2023-05-13T08:58:33;19.00;99.90
21787;DHT22;11055;50.870;4.316;2023-05-13T09:00:59;19.10;99.90
21787;DHT22;11055;50.870;4.316;2023-05-13T09:03:26;19.10;99.90
21787;DHT22;11055;50.870;4.316;2023-05-13T09:05:52;19.30;99.90
21787;DHT22;11055;50.870;4.316;2023-05-13T09:08:18;19.60;99.90
21787;DHT22;11055;50.870;4.316;2023-05-13T09:10:43;19.70;99.90
21787;DHT22;11055;50.870;4.316;2023-05-13T09:13:11;19.90;99.90
21787;DHT22;11055;50.870;4.316;2023-05-13T09:15:40;20.10;99.90
21787;DHT22;11055;50.870;4.316;2023-05-13T09:18:06;19.80;99.90
21787;DHT22;11055;50.870;4.316;2023-05-13T09:20:33;19.90;99.90
21787;DHT22;11055;50.870;4.316;2023-05-13T09:23:01;20.10;99.90
21787;DHT22;11055;50.870;4.316;2023-05-13T09:25:28;20.20;99.90
21787;DHT22;11055;50.870;4.316;2023-05-13T09:27:59;20.30;99.90
21787;DHT22;11055;50.870;4.316;2023-05-13T09:30:27;20.40;99.90
21787;DHT22;11055;50.870;4.316;2023-05-13T09:35:34;20.80;99.90
21787;DHT22;11055;50.870;4.316;2023-05-13T09:38:00;21.00;99.90
21787;DHT22;11055;50.870;4.316;2023-05-13T09:40:26;21.00;99.90
21787;DHT22;11055;50.870;4.316;2023-05-13T09:42:56;21.10;99.90
21787;DHT22;11055;50.870;4.316;2023-05-13T09:45:24;21.30;99.90
21787;DHT22;11055;50.870;4.316;2023-05-13T09:47:50;21.20;99.90
21787;DHT22;11055;50.870;4.316;2023-05-13T09:50:18;21.30;99.90
21787;DHT22;11055;50.870;4.316;2023-05-13T09:52:44;21.40;99.90
21787;DHT22;11055;50.870;4.316;2023-05-13T09:55:10;21.20;99.90
21787;DHT22;11055;50.870;4.316;2023-05-13T09:57:35;21.40;99.90
21787;DHT22;11055;50.870;4.316;2023-05-13T10:00:04;21.10;99.90
21787;DHT22;11055;50.870;4.316;2023-05-13T10:02:30;21.00;99.90
21787;DHT22;11055;50.870;4.316;2023-05-13T10:04:56;21.20;99.90
21787;DHT22;11055;50.870;4.316;2023-05-13T10:07:23;21.50;99.90
21787;DHT22;11055;50.870;4.316;2023-05-13T10:09:56;21.70;99.90
21787;DHT22;11055;50.870;4.316;2023-05-13T10:12:24;21.80;99.90
21787;DHT22;11055;50.870;4.316;2023-05-13T10:14:51;22.00;99.90
21787;DHT22;11055;50.870;4.316;2023-05-13T10:17:22;22.20;99.90
21787;DHT22;11055;50.870;4.316;2023-05-13T10:19:49;22.10;99.90
21787;DHT22;11055;50.870;4.316;2023-05-13T10:22:26;22.10;99.90
21787;DHT22;11055;50.870;4.316;2023-05-13T10:25:02;22.10;99.90
21787;DHT22;11055;50.870;4.316;2023-05-13T10:27:30;22.20;99.90
21787;DHT22;11055;50.870;4.316;2023-05-13T10:29:58;22.40;99.90
21787;DHT22;11055;50.870;4.316;2023-05-13T10:32:26;22.60;99.90
21787;DHT22;11055;50.870;4.316;2023-05-13T10:35:11;22.70;99.90
21787;DHT22;11055;50.870;4.316;2023-05-13T10:43:18;22.60;99.90
21787;DHT22;11055;50.870;4.316;2023-05-13T10:45:46;22.80;99.90
21787;DHT22;11055;50.870;4.316;2023-05-13T10:48:12;23.00;99.90
21787;DHT22;11055;50.870;4.316;2023-05-13T10:50:40;23.10;99.90
21787;DHT22;11055;50.870;4.316;2023-05-13T10:53:29;23.10;99.90
21787;DHT22;11055;50.870;4.316;2023-05-13T10:55:56;23.40;99.90
21787;DHT22;11055;50.870;4.316;2023-05-13T10:58:33;23.60;99.90
21787;DHT22;11055;50.870;4.316;2023-05-13T11:03:43;23.10;99.90
21787;DHT22;11055;50.870;4.316;2023-05-13T11:06:37;23.30;99.90
21787;DHT22;11055;50.870;4.316;2023-05-13T11:09:06;23.60;99.90
21787;DHT22;11055;50.870;4.316;2023-05-13T11:11:33;23.60;99.90
21787;DHT22;11055;50.870;4.316;2023-05-13T11:16:33;23.80;99.90
21787;DHT22;11055;50.870;4.316;2023-05-13T11:19:01;24.00;99.90
21787;DHT22;11055;50.870;4.316;2023-05-13T11:21:29;24.00;99.90
21787;DHT22;11055;50.870;4.316;2023-05-13T11:23:57;24.20;99.90
21787;DHT22;11055;50.870;4.316;2023-05-13T11:26:23;24.20;99.90
21787;DHT22;11055;50.870;4.316;2023-05-13T11:28:56;24.60;99.90
21787;DHT22;11055;50.870;4.316;2023-05-13T11:31:22;24.90;99.90
21787;DHT22;11055;50.870;4.316;2023-05-13T11:34:15;25.20;99.90
21787;DHT22;11055;50.870;4.316;2023-05-13T11:36:44;25.40;99.90
21787;DHT22;11055;50.870;4.316;2023-05-13T11:39:15;25.10;99.90
21787;DHT22;11055;50.870;4.316;2023-05-13T11:41:46;25.40;99.90
21787;DHT22;11055;50.870;4.316;2023-05-13T11:44:17;24.80;99.90
21787;DHT22;11055;50.870;4.316;2023-05-13T11:46:50;25.00;99.90
21787;DHT22;11055;50.870;4.316;2023-05-13T11:49:41;25.60;99.90
21787;DHT22;11055;50.870;4.316;2023-05-13T11:52:20;25.90;99.90
21787;DHT22;11055;50.870;4.316;2023-05-13T11:54:51;26.20;99.90
21787;DHT22;11055;50.870;4.316;2023-05-13T11:57:28;26.40;99.90
21787;DHT22;11055;50.870;4.316;2023-05-13T12:00:02;26.70;99.90
21787;DHT22;11055;50.870;4.316;2023-05-13T12:02:36;26.70;99.60
21787;DHT22;11055;50.870;4.316;2023-05-13T12:05:04;26.80;99.40
21787;DHT22;11055;50.870;4.316;2023-05-13T12:07:31;26.90;98.40
21787;DHT22;11055;50.870;4.316;2023-05-13T12:09:58;27.20;97.80
21787;DHT22;11055;50.870;4.316;2023-05-13T12:12:25;27.70;97.30
21787;DHT22;11055;50.870;4.316;2023-05-13T12:14:52;27.40;97.70
21787;DHT22;11055;50.870;4.316;2023-05-13T12:17:19;26.70;98.20
21787;DHT22;11055;50.870;4.316;2023-05-13T12:20:11;26.90;96.90
21787;DHT22;11055;50.870;4.316;2023-05-13T12:25:47;27.60;96.10
21787;DHT22;11055;50.870;4.316;2023-05-13T12:28:23;26.90;96.80
21787;DHT22;11055;50.870;4.316;2023-05-13T12:33:29;26.50;98.00
21787;DHT22;11055;50.870;4.316;2023-05-13T12:36:15;26.80;98.10
21787;DHT22;11055;50.870;4.316;2023-05-13T12:39:02;27.20;97.40
21787;DHT22;11055;50.870;4.316;2023-05-13T12:41:29;27.80;96.60
21787;DHT22;11055;50.870;4.316;2023-05-13T12:44:09;27.50;97.80
21787;DHT22;11055;50.870;4.316;2023-05-13T12:46:36;26.80;98.60
21787;DHT22;11055;50.870;4.316;2023-05-13T12:49:03;25.50;99.60
21787;DHT22;11055;50.870;4.316;2023-05-13T12:51:29;24.90;99.90
21787;DHT22;11055;50.870;4.316;2023-05-13T12:53:56;24.60;99.90
21787;DHT22;11055;50.870;4.316;2023-05-13T12:56:23;24.40;99.90
21787;DHT22;11055;50.870;4.316;2023-05-13T12:58:53;24.50;99.90
21787;DHT22;11055;50.870;4.316;2023-05-13T13:01:20;24.00;99.90
21787;DHT22;11055;50.870;4.316;2023-05-13T13:03:47;23.80;99.90
21787;DHT22;11055;50.870;4.316;2023-05-13T13:06:13;23.10;99.90
21787;DHT22;11055;50.870;4.316;2023-05-13T13:08:39;23.30;99.90
21787;DHT22;11055;50.870;4.316;2023-05-13T13:11:05;23.40;99.90
21787;DHT22;11055;50.870;4.316;2023-05-13T13:13:32;22.90;99.90
21787;DHT22;11055;50.870;4.316;2023-05-13T13:15:58;22.80;99.90
21787;DHT22;11055;50.870;4.316;2023-05-13T13:18:24;22.90;99.90
21787;DHT22;11055;50.870;4.316;2023-05-13T13:20:50;22.60;99.90
21787;DHT22;11055;50.870;4.316;2023-05-13T13:23:17;22.50;99.90
21787;DHT22;11055;50.870;4.316;2023-05-13T13:25:43;22.50;99.90
21787;DHT22;11055;50.870;4.316;2023-05-13T13:28:09;22.30;99.90
21787;DHT22;11055;50.870;4.316;2023-05-13T13:30:35;22.40;99.90
21787;DHT22;11055;50.870;4.316;2023-05-13T13:33:01;22.50;99.90
21787;DHT22;11055;50.870;4.316;2023-05-13T13:35:27;22.60;99.90
21787;DHT22;11055;50.870;4.316;2023-05-13T13:37:52;22.70;99.90
21787;DHT22;11055;50.870;4.316;2023-05-13T13:40:19;22.70;99.90
21787;DHT22;11055;50.870;4.316;2023-05-13T13:42:45;22.70;99.90
21787;DHT22;11055;50.870;4.316;2023-05-13T13:45:11;22.60;99.90
21787;DHT22;11055;50.870;4.316;2023-05-13T13:47:38;22.80;99.90
21787;DHT22;11055;50.870;4.316;2023-05-13T13:50:04;22.60;99.90
21787;DHT22;11055;50.870;4.316;2023-05-13T13:52:30;22.50;99.90
21787;DHT22;11055;50.870;4.316;2023-05-13T13:54:56;22.50;99.90
21787;DHT22;11055;50.870;4.316;2023-05-13T13:57:21;22.60;99.90
21787;DHT22;11055;50.870;4.316;2023-05-13T13:59:47;22.70;99.90
21787;DHT22;11055;50.870;4.316;2023-05-13T14:02:13;22.70;99.90
21787;DHT22;11055;50.870;4.316;2023-05-13T14:04:38;22.60;99.90
21787;DHT22;11055;50.870;4.316;2023-05-13T14:07:04;22.40;99.90
21787;DHT22;11055;50.870;4.316;2023-05-13T14:09:29;22.50;99.90
21787;DHT22;11055;50.870;4.316;2023-05-13T14:11:57;22.60;99.90
21787;DHT22;11055;50.870;4.316;2023-05-13T14:14:22;22.70;99.90
21787;DHT22;11055;50.870;4.316;2023-05-13T14:16:49;22.70;99.90
21787;DHT22;11055;50.870;4.316;2023-05-13T14:19:15;22.60;99.90
21787;DHT22;11055;50.870;4.316;2023-05-13T14:21:44;22.60;99.90
21787;DHT22;11055;50.870;4.316;2023-05-13T14:24:10;22.60;99.90
21787;DHT22;11055;50.870;4.316;2023-05-13T14:26:37;22.60;99.90
21787;DHT22;11055;50.870;4.316;2023-05-13T14:29:03;22.10;99.90
21787;DHT22;11055;50.870;4.316;2023-05-13T14:31:28;22.00;99.90
21787;DHT22;11055;50.870;4.316;2023-05-13T14:33:54;22.00;99.90
21787;DHT22;11055;50.870;4.316;2023-05-13T14:36:20;22.20;99.90
21787;DHT22;11055;50.870;4.316;2023-05-13T14:38:47;22.00;99.90
21787;DHT22;11055;50.870;4.316;2023-05-13T14:41:12;22.00;99.90
21787;DHT22;11055;50.870;4.316;2023-05-13T14:43:44;22.20;99.90
21787;DHT22;11055;50.870;4.316;2023-05-13T14:46:11;22.40;99.90
21787;DHT22;11055;50.870;4.316;2023-05-13T14:48:36;22.50;99.90
21787;DHT22;11055;50.870;4.316;2023-05-13T14:51:02;22.50;99.90
21787;DHT22;11055;50.870;4.316;2023-05-13T14:53:28;22.30;99.90
21787;DHT22;11055;50.870;4.316;2023-05-13T14:55:54;22.30;99.90
21787;DHT22;11055;50.870;4.316;2023-05-13T14:58:19;22.20;99.90
21787;DHT22;11055;50.870;4.316;2023-05-13T15:00:45;22.00;99.90
21787;DHT22;11055;50.870;4.316;2023-05-13T15:03:11;22.00;99.90
21787;DHT22;11055;50.870;4.316;2023-05-13T15:05:37;22.00;99.90
21787;DHT22;11055;50.870;4.316;2023-05-13T15:08:02;22.00;99.90
21787;DHT22;11055;50.870;4.316;2023-05-13T15:10:28;22.00;99.90
21787;DHT22;11055;50.870;4.316;2023-05-13T15:12:54;22.00;99.90
21787;DHT22;11055;50.870;4.316;2023-05-13T15:15:19;22.00;99.90
21787;DHT22;11055;50.870;4.316;2023-05-13T15:17:45;21.90;99.90
21787;DHT22;11055;50.870;4.316;2023-05-13T15:20:11;21.90;99.90
21787;DHT22;11055;50.870;4.316;2023-05-13T15:22:37;22.00;99.90
21787;DHT22;11055;50.870;4.316;2023-05-13T15:25:02;21.80;99.90
21787;DHT22;11055;50.870;4.316;2023-05-13T15:27:28;21.70;99.90
21787;DHT22;11055;50.870;4.316;2023-05-13T15:29:54;21.80;99.90
21787;DHT22;11055;50.870;4.316;2023-05-13T15:32:20;21.90;99.90
21787;DHT22;11055;50.870;4.316;2023-05-13T15:34:45;21.60;99.90
21787;DHT22;11055;50.870;4.316;2023-05-13T15:37:11;21.40;99.90
21787;DHT22;11055;50.870;4.316;2023-05-13T15:39:37;21.50;99.90
21787;DHT22;11055;50.870;4.316;2023-05-13T15:42:02;21.60;99.90
21787;DHT22;11055;50.870;4.316;2023-05-13T15:44:28;21.60;99.90
21787;DHT22;11055;50.870;4.316;2023-05-13T15:46:54;21.70;99.90
21787;DHT22;11055;50.870;4.316;2023-05-13T15:49:19;21.70;99.90
21787;DHT22;11055;50.870;4.316;2023-05-13T15:51:45;21.60;99.90
21787;DHT22;11055;50.870;4.316;2023-05-13T15:54:11;21.60;99.90
21787;DHT22;11055;50.870;4.316;2023-05-13T15:56:36;21.60;99.90